createdAt,value
2018-07-24T00:00:29.686Z,73.40
2018-07-24T00:02:57.598Z,73.40
2018-07-24T00:05:25.381Z,73.90
2018-07-24T00:07:53.099Z,73.80
2018-07-24T00:10:20.907Z,73.80
2018-07-24T00:12:48.634Z,73.70
2018-07-24T00:15:16.398Z,73.70
2018-07-24T00:17:44.173Z,73.80
2018-07-24T00:20:11.934Z,74.00
2018-07-24T00:22:39.637Z,73.80
2018-07-24T00:25:07.399Z,74.30
2018-07-24T00:27:35.209Z,73.90
2018-07-24T00:30:03.439Z,74.00
2018-07-24T00:32:31.355Z,73.70
2018-07-24T00:34:59.228Z,73.70
2018-07-24T00:37:26.970Z,73.80
2018-07-24T00:39:54.687Z,74.60
2018-07-24T00:42:22.490Z,74.30
2018-07-24T00:44:50.225Z,74.40
2018-07-24T00:47:17.979Z,74.30
2018-07-24T00:49:45.732Z,74.50
2018-07-24T00:52:13.443Z,74.60
2018-07-24T00:54:41.166Z,74.70
2018-07-24T00:59:36.537Z,74.50
2018-07-24T01:02:04.276Z,74.90
2018-07-24T01:04:32.031Z,74.90
2018-07-24T01:06:59.759Z,74.90
2018-07-24T01:09:27.443Z,74.80
2018-07-24T01:11:55.164Z,74.90
2018-07-24T01:14:22.910Z,74.90
2018-07-24T01:16:50.616Z,74.70
2018-07-24T01:19:18.441Z,74.70
2018-07-24T01:21:46.154Z,74.80
2018-07-24T01:24:13.999Z,74.80
2018-07-24T01:26:41.684Z,74.90
2018-07-24T01:29:09.445Z,74.80
2018-07-24T01:34:04.620Z,74.90
2018-07-24T01:36:32.320Z,75.10
2018-07-24T01:39:00.031Z,75.40
2018-07-24T01:41:27.849Z,75.40
2018-07-24T01:43:55.591Z,75.10
2018-07-24T01:46:23.319Z,75.60
2018-07-24T01:48:51.149Z,75.20
2018-07-24T01:51:18.902Z,75.30
2018-07-24T01:53:46.618Z,75.30
2018-07-24T01:56:14.326Z,75.60
2018-07-24T01:58:42.065Z,75.40
2018-07-24T02:01:09.777Z,75.40
2018-07-24T02:03:37.647Z,75.60
2018-07-24T02:06:05.375Z,75.70
2018-07-24T02:08:33.487Z,75.60
2018-07-24T02:11:01.471Z,75.90
2018-07-24T02:13:29.211Z,75.80
2018-07-24T02:15:56.967Z,76.30
2018-07-24T02:18:24.923Z,76.40
2018-07-24T02:23:25.979Z,76.10
2018-07-24T02:25:53.738Z,76.00
2018-07-24T02:28:21.468Z,75.80
2018-07-24T02:30:49.208Z,75.90
2018-07-24T02:33:17.128Z,75.90
2018-07-24T02:38:12.284Z,76.10
2018-07-24T02:40:40.028Z,76.20
2018-07-24T02:43:07.954Z,76.40
2018-07-24T02:45:35.643Z,76.50
2018-07-24T02:48:03.460Z,76.10
2018-07-24T02:50:32.015Z,76.10
2018-07-24T02:53:00.560Z,76.20
2018-07-24T02:55:29.073Z,76.00
2018-07-24T02:57:57.654Z,76.10
2018-07-24T03:00:26.283Z,75.90
2018-07-24T03:02:54.831Z,76.10
2018-07-24T03:05:23.454Z,76.20
2018-07-24T03:07:52.131Z,76.00
2018-07-24T03:10:20.621Z,76.30
2018-07-24T03:12:49.160Z,76.80
2018-07-24T03:15:17.722Z,75.40
2018-07-24T03:17:46.245Z,75.10
2018-07-24T03:20:14.829Z,75.80
2018-07-24T03:22:43.635Z,75.90
2018-07-24T03:25:12.212Z,75.10
2018-07-24T03:27:40.697Z,75.30
2018-07-24T03:30:09.256Z,74.90
2018-07-24T03:32:37.936Z,74.70
2018-07-24T03:35:06.467Z,74.80
2018-07-24T03:37:35.007Z,74.50
2018-07-24T03:40:03.760Z,74.40
2018-07-24T03:42:32.257Z,73.70
2018-07-24T03:45:00.853Z,74.30
2018-07-24T03:47:29.619Z,74.10
2018-07-24T03:49:58.179Z,74.40
2018-07-24T03:52:26.752Z,74.20
2018-07-24T03:54:55.353Z,74.50
2018-07-24T03:57:23.951Z,74.50
2018-07-24T03:59:52.448Z,74.60
2018-07-24T04:02:21.044Z,75.00
2018-07-24T04:04:49.511Z,75.10
2018-07-24T04:07:18.161Z,75.10
2018-07-24T04:09:47.040Z,75.10
2018-07-24T04:12:15.604Z,75.30
2018-07-24T04:14:44.292Z,75.30
2018-07-24T04:17:12.823Z,75.20
2018-07-24T04:19:41.353Z,75.20
2018-07-24T04:22:09.904Z,75.30
2018-07-24T04:24:38.464Z,75.40
2018-07-24T04:27:07.234Z,75.10
2018-07-24T04:29:35.760Z,75.30
2018-07-24T04:32:04.339Z,75.20
2018-07-24T04:34:32.835Z,75.20
2018-07-24T04:37:01.356Z,75.30
2018-07-24T04:39:30.304Z,75.10
2018-07-24T04:41:58.874Z,75.00
2018-07-24T04:44:27.422Z,75.10
2018-07-24T04:46:56.046Z,74.90
2018-07-24T04:49:24.556Z,75.00
2018-07-24T04:51:53.081Z,75.00
2018-07-24T04:54:21.861Z,76.00
2018-07-24T04:56:50.454Z,75.10
2018-07-24T04:59:19.047Z,75.30
2018-07-24T05:01:47.540Z,75.90
2018-07-24T05:04:16.208Z,75.20
2018-07-24T05:06:44.959Z,75.10
2018-07-24T05:09:14.363Z,75.10
2018-07-24T05:11:43.530Z,75.30
2018-07-24T05:14:12.708Z,74.80
2018-07-24T05:16:41.876Z,74.70
2018-07-24T05:19:10.393Z,74.90
2018-07-24T05:21:38.944Z,75.10
2018-07-24T05:24:07.659Z,75.20
2018-07-24T05:26:36.297Z,75.00
2018-07-24T05:29:04.832Z,74.90
2018-07-24T05:31:33.579Z,74.70
2018-07-24T05:34:02.063Z,74.60
2018-07-24T05:36:30.689Z,74.80
2018-07-24T05:38:59.188Z,74.60
2018-07-24T05:41:27.807Z,74.50
2018-07-24T05:43:56.725Z,74.70
2018-07-24T05:46:25.198Z,74.50
2018-07-24T05:48:54.036Z,74.40
2018-07-24T05:51:22.668Z,74.40
2018-07-24T05:53:51.332Z,74.10
2018-07-24T05:56:19.858Z,73.80
2018-07-24T05:58:48.447Z,74.20
2018-07-24T06:01:17.033Z,74.10
2018-07-24T06:03:45.661Z,73.90
2018-07-24T06:06:14.249Z,73.70
2018-07-24T06:08:42.805Z,73.40
2018-07-24T06:11:11.344Z,73.60
2018-07-24T06:13:40.264Z,73.90
2018-07-24T06:16:08.823Z,73.80
2018-07-24T06:18:37.377Z,73.70
2018-07-24T06:21:06.006Z,73.80
2018-07-24T06:23:34.764Z,74.10
2018-07-24T06:26:03.623Z,73.90
2018-07-24T06:28:32.299Z,73.60
2018-07-24T06:31:00.824Z,73.30
2018-07-24T06:33:29.494Z,73.40
2018-07-24T06:35:58.000Z,73.60
2018-07-24T06:38:26.474Z,73.30
2018-07-24T06:40:55.021Z,73.40
2018-07-24T06:43:23.496Z,73.70
2018-07-24T06:45:52.004Z,74.20
2018-07-24T06:48:20.520Z,73.90
2018-07-24T06:50:49.402Z,73.60
2018-07-24T06:55:46.120Z,74.30
2018-07-24T06:58:14.645Z,74.30
2018-07-24T07:00:43.247Z,74.80
2018-07-24T07:03:11.790Z,73.40
2018-07-24T07:05:40.318Z,72.70
2018-07-24T07:08:08.939Z,72.30
2018-07-24T07:10:37.476Z,71.40
2018-07-24T07:13:06.220Z,71.20
2018-07-24T07:15:34.729Z,71.00
2018-07-24T07:18:03.272Z,71.40
2018-07-24T07:20:32.129Z,71.40
2018-07-24T07:23:00.731Z,71.20
2018-07-24T07:25:29.237Z,71.60
2018-07-24T07:27:57.834Z,71.70
2018-07-24T07:30:26.494Z,71.70
2018-07-24T07:32:55.088Z,71.30
2018-07-24T07:35:23.619Z,70.80
2018-07-24T07:37:52.271Z,70.40
2018-07-24T07:40:20.807Z,70.20
2018-07-24T07:42:49.507Z,70.10
2018-07-24T07:45:18.134Z,69.70
2018-07-24T07:47:46.676Z,69.50
2018-07-24T07:50:15.322Z,69.40
2018-07-24T07:52:43.853Z,68.80
2018-07-24T07:55:12.367Z,68.50
2018-07-24T07:57:41.088Z,68.50
2018-07-24T08:00:09.708Z,68.00
2018-07-24T08:02:38.348Z,68.30
2018-07-24T08:05:07.085Z,68.40
2018-07-24T08:07:35.579Z,67.00
2018-07-24T08:10:04.295Z,66.80
2018-07-24T08:12:32.823Z,65.10
2018-07-24T08:15:02.844Z,64.10
2018-07-24T08:17:31.489Z,63.00
2018-07-24T08:20:00.300Z,63.60
2018-07-24T08:22:29.027Z,64.70
2018-07-24T08:24:57.641Z,65.10
2018-07-24T08:27:26.171Z,66.10
2018-07-24T08:29:54.812Z,66.10
2018-07-24T08:32:23.320Z,64.10
2018-07-24T08:34:52.156Z,63.80
2018-07-24T08:37:20.914Z,63.30
2018-07-24T08:39:49.538Z,62.30
2018-07-24T08:42:18.295Z,63.00
2018-07-24T08:44:46.950Z,61.70
2018-07-24T08:47:15.542Z,61.50
2018-07-24T08:52:12.292Z,61.90
2018-07-24T08:54:41.033Z,59.90
2018-07-24T08:57:09.554Z,60.60
2018-07-24T08:59:38.142Z,61.30
2018-07-24T09:02:07.088Z,62.30
2018-07-24T09:04:35.607Z,60.20
2018-07-24T09:07:03.733Z,60.20
2018-07-24T09:09:31.681Z,58.60
2018-07-24T09:11:59.665Z,58.30
2018-07-24T09:14:27.520Z,58.70
2018-07-24T09:16:55.235Z,58.40
2018-07-24T09:19:23.166Z,59.50
2018-07-24T09:21:51.900Z,58.90
2018-07-24T09:24:20.627Z,57.80
2018-07-24T09:26:49.270Z,58.50
2018-07-24T09:29:17.801Z,58.10
2018-07-24T09:31:46.417Z,57.90
2018-07-24T09:34:15.214Z,58.90
2018-07-24T09:36:43.803Z,56.60
2018-07-24T09:39:12.404Z,57.00
2018-07-24T09:41:41.093Z,56.30
2018-07-24T09:44:09.668Z,55.20
2018-07-24T09:46:38.354Z,54.90
2018-07-24T09:49:07.011Z,53.90
2018-07-24T09:51:35.584Z,53.40
2018-07-24T09:54:04.093Z,54.00
2018-07-24T09:56:32.740Z,53.10
2018-07-24T09:59:01.231Z,53.30
2018-07-24T10:01:33.024Z,52.90
2018-07-24T10:04:02.402Z,51.30
2018-07-24T10:06:31.753Z,51.60
2018-07-24T10:09:00.383Z,51.90
2018-07-24T10:11:31.879Z,53.40
2018-07-24T10:14:00.414Z,51.10
2018-07-24T10:16:28.979Z,50.40
2018-07-24T10:18:57.647Z,50.30
2018-07-24T10:21:26.232Z,51.20
2018-07-24T10:23:54.796Z,50.10
2018-07-24T10:26:23.273Z,50.40
2018-07-24T10:28:52.474Z,50.20
2018-07-24T10:31:21.083Z,49.70
2018-07-24T10:33:49.652Z,50.00
2018-07-24T10:36:18.157Z,51.20
2018-07-24T10:38:46.735Z,50.60
2018-07-24T10:41:15.389Z,49.70
2018-07-24T10:43:43.924Z,50.60
2018-07-24T10:46:12.534Z,49.10
2018-07-24T10:51:09.391Z,49.10
2018-07-24T10:53:37.894Z,48.20
2018-07-24T10:56:06.667Z,47.90
2018-07-24T11:03:31.621Z,47.80
2018-07-24T11:06:00.182Z,48.60
2018-07-24T11:08:28.771Z,47.80
2018-07-24T11:10:57.473Z,47.60
2018-07-24T11:13:25.982Z,48.60
2018-07-24T11:15:54.771Z,48.80
2018-07-24T11:18:23.548Z,47.70
2018-07-24T11:20:52.162Z,46.90
2018-07-24T11:23:20.870Z,47.70
2018-07-24T11:25:49.653Z,47.60
2018-07-24T11:30:46.537Z,46.60
2018-07-24T11:33:15.341Z,46.20
2018-07-24T11:35:44.043Z,47.30
2018-07-24T11:38:12.580Z,45.00
2018-07-24T11:40:41.520Z,45.60
2018-07-24T11:43:10.107Z,46.60
2018-07-24T11:45:38.865Z,47.10
2018-07-24T11:48:07.543Z,46.60
2018-07-24T11:50:36.039Z,44.60
2018-07-24T11:53:04.630Z,44.60
2018-07-24T11:55:33.421Z,44.80
2018-07-24T11:58:01.983Z,44.50
2018-07-24T12:00:30.508Z,44.10
2018-07-24T12:02:59.096Z,43.90
2018-07-24T12:05:27.672Z,44.90
2018-07-24T12:07:56.256Z,43.60
2018-07-24T12:10:24.748Z,45.80
2018-07-24T12:15:21.574Z,43.90
2018-07-24T12:17:50.193Z,43.30
2018-07-24T12:20:18.896Z,41.30
2018-07-24T12:22:47.423Z,43.40
2018-07-24T12:25:16.080Z,41.50
2018-07-24T12:27:44.649Z,40.90
2018-07-24T12:30:13.149Z,43.50
2018-07-24T12:32:41.716Z,42.40
2018-07-24T12:35:10.324Z,42.30
2018-07-24T12:37:39.117Z,41.50
2018-07-24T12:40:07.849Z,42.20
2018-07-24T12:42:36.527Z,41.20
2018-07-24T12:45:05.447Z,40.50
2018-07-24T12:47:34.100Z,38.20
2018-07-24T12:50:02.620Z,38.30
2018-07-24T12:52:31.355Z,37.40
2018-07-24T12:57:28.494Z,39.00
2018-07-24T12:59:57.157Z,38.20
2018-07-24T13:02:25.746Z,38.70
2018-07-24T13:04:54.568Z,38.80
2018-07-24T13:07:23.193Z,38.60
2018-07-24T13:09:51.990Z,39.00
2018-07-24T13:12:20.528Z,38.90
2018-07-24T13:14:49.108Z,37.70
2018-07-24T13:17:17.903Z,37.10
2018-07-24T13:19:46.560Z,37.60
2018-07-24T13:22:15.124Z,38.10
2018-07-24T13:24:43.844Z,38.70
2018-07-24T13:27:12.870Z,37.70
2018-07-24T13:29:41.480Z,37.80
2018-07-24T13:32:10.171Z,37.10
2018-07-24T13:34:38.691Z,38.10
2018-07-24T13:37:07.401Z,37.20
2018-07-24T13:39:35.954Z,38.50
2018-07-24T13:42:04.630Z,35.50
2018-07-24T13:44:33.306Z,36.40
2018-07-24T13:47:01.136Z,37.10
2018-07-24T13:49:28.931Z,37.70
2018-07-24T13:51:56.723Z,37.00
2018-07-24T13:54:24.498Z,36.90
2018-07-24T13:56:52.389Z,36.60
2018-07-24T13:59:20.258Z,37.00
2018-07-24T14:01:48.069Z,36.40
2018-07-24T14:04:15.879Z,36.50
2018-07-24T14:06:43.673Z,36.50
2018-07-24T14:09:13.223Z,36.20
2018-07-24T14:11:41.684Z,35.40
2018-07-24T14:14:10.819Z,35.30
2018-07-24T14:16:39.458Z,34.60
2018-07-24T14:19:08.500Z,35.00
2018-07-24T14:21:37.037Z,35.30
2018-07-24T14:24:05.792Z,35.90
2018-07-24T14:26:34.316Z,35.70
2018-07-24T14:29:03.263Z,35.10
2018-07-24T14:31:31.847Z,36.30
2018-07-24T14:34:00.519Z,36.20
2018-07-24T14:36:30.001Z,34.80
2018-07-24T14:38:58.688Z,34.50
2018-07-24T14:41:27.562Z,34.50
2018-07-24T14:43:56.227Z,34.70
2018-07-24T14:46:24.887Z,34.40
2018-07-24T14:48:53.624Z,34.00
2018-07-24T14:51:22.280Z,34.30
2018-07-24T14:53:50.876Z,33.40
2018-07-24T14:56:19.578Z,33.10
2018-07-24T14:58:48.190Z,32.70
2018-07-24T15:01:16.792Z,33.60
2018-07-24T15:03:45.441Z,33.60
2018-07-24T15:06:14.203Z,34.20
2018-07-24T15:08:42.731Z,33.40
2018-07-24T15:11:11.264Z,33.10
2018-07-24T15:13:39.967Z,33.50
2018-07-24T15:16:08.728Z,33.30
2018-07-24T15:18:37.343Z,33.50
2018-07-24T15:21:05.995Z,33.70
2018-07-24T15:23:34.595Z,32.60
2018-07-24T15:26:03.294Z,32.70
2018-07-24T15:28:32.051Z,33.10
2018-07-24T15:31:00.733Z,33.30
2018-07-24T15:33:29.339Z,33.40
2018-07-24T15:35:57.944Z,32.80
2018-07-24T15:38:26.516Z,33.30
2018-07-24T15:40:55.092Z,33.00
2018-07-24T15:43:23.674Z,32.50
2018-07-24T15:45:52.401Z,32.30
2018-07-24T15:48:21.021Z,33.90
2018-07-24T15:50:49.588Z,33.70
2018-07-24T15:53:17.480Z,33.80
2018-07-24T15:55:45.320Z,34.10
2018-07-24T15:58:13.122Z,33.70
2018-07-24T16:00:41.022Z,33.30
2018-07-24T16:03:08.811Z,33.30
2018-07-24T16:05:36.991Z,33.90
2018-07-24T16:08:05.102Z,33.40
2018-07-24T16:10:32.893Z,33.30
2018-07-24T16:13:00.664Z,33.70
2018-07-24T16:15:28.585Z,34.50
2018-07-24T16:17:56.552Z,33.60
2018-07-24T16:20:25.289Z,33.50
2018-07-24T16:22:53.946Z,34.30
2018-07-24T16:25:22.635Z,34.20
2018-07-24T16:27:51.275Z,33.70
2018-07-24T16:30:19.992Z,34.50
2018-07-24T16:32:48.527Z,33.70
2018-07-24T16:35:17.135Z,33.30
2018-07-24T16:37:45.944Z,33.20
2018-07-24T16:40:14.744Z,34.50
2018-07-24T16:42:43.361Z,33.60
2018-07-24T16:45:12.072Z,34.00
2018-07-24T16:47:40.784Z,33.60
2018-07-24T16:50:09.516Z,34.50
2018-07-24T16:52:38.140Z,34.40
2018-07-24T16:55:06.732Z,33.90
2018-07-24T16:57:35.636Z,34.00
2018-07-24T17:00:05.022Z,33.60
2018-07-24T17:02:33.616Z,34.20
2018-07-24T17:05:02.281Z,33.80
2018-07-24T17:07:31.114Z,34.20
2018-07-24T17:09:59.849Z,35.10
2018-07-24T17:12:28.488Z,35.20
2018-07-24T17:14:57.270Z,35.00
2018-07-24T17:17:26.064Z,34.30
2018-07-24T17:19:55.037Z,35.20
2018-07-24T17:22:24.068Z,35.20
2018-07-24T17:24:52.646Z,36.20
2018-07-24T17:27:21.318Z,35.60
2018-07-24T17:29:50.307Z,34.50
2018-07-24T17:32:19.056Z,34.20
2018-07-24T17:34:48.065Z,34.30
2018-07-24T17:37:16.804Z,34.50
2018-07-24T17:39:45.386Z,35.10
2018-07-24T17:42:14.347Z,35.10
2018-07-24T17:44:43.202Z,35.70
2018-07-24T17:47:12.000Z,36.50
2018-07-24T17:49:40.714Z,36.50
2018-07-24T17:52:09.420Z,35.90
2018-07-24T17:54:38.052Z,36.30
2018-07-24T17:57:06.843Z,36.00
2018-07-24T17:59:35.541Z,37.30
2018-07-24T18:02:04.400Z,35.60
2018-07-24T18:04:33.374Z,36.30
2018-07-24T18:07:02.206Z,38.00
2018-07-24T18:09:31.179Z,37.80
2018-07-24T18:11:59.839Z,37.50
2018-07-24T18:14:28.470Z,38.10
2018-07-24T18:16:57.552Z,39.00
2018-07-24T18:19:26.338Z,39.20
2018-07-24T18:21:54.984Z,40.70
2018-07-24T18:24:23.738Z,41.20
2018-07-24T18:26:52.718Z,42.40
2018-07-24T18:29:21.583Z,42.10
2018-07-24T18:31:50.354Z,43.10
2018-07-24T18:34:19.266Z,43.60
2018-07-24T18:36:48.082Z,44.40
2018-07-24T18:39:16.865Z,44.40
2018-07-24T18:41:45.791Z,44.40
2018-07-24T18:44:14.594Z,45.40
2018-07-24T18:46:43.417Z,45.40
2018-07-24T18:49:12.068Z,46.20
2018-07-24T18:51:40.857Z,46.30
2018-07-24T18:54:09.816Z,46.50
2018-07-24T18:56:38.637Z,46.40
2018-07-24T18:59:07.862Z,46.60
2018-07-24T19:01:36.612Z,47.10
2018-07-24T19:04:05.444Z,46.90
2018-07-24T19:06:34.355Z,46.40
2018-07-24T19:09:03.334Z,46.60
2018-07-24T19:11:32.227Z,46.90
2018-07-24T19:14:00.985Z,48.40
2018-07-24T19:16:29.778Z,47.40
2018-07-24T19:18:58.531Z,47.50
2018-07-24T19:21:27.728Z,48.90
2018-07-24T19:23:56.687Z,47.70
2018-07-24T19:26:25.754Z,49.00
2018-07-24T19:28:54.445Z,48.80
2018-07-24T19:31:23.222Z,51.60
2018-07-24T19:33:52.121Z,50.10
2018-07-24T19:36:21.223Z,50.10
2018-07-24T19:38:49.961Z,50.10
2018-07-24T19:41:18.683Z,50.40
2018-07-24T19:43:47.390Z,50.40
2018-07-24T19:46:15.983Z,50.60
2018-07-24T19:48:44.877Z,51.00
2018-07-24T19:51:14.212Z,51.30
2018-07-24T19:53:43.272Z,51.50
2018-07-24T19:56:12.084Z,51.70
2018-07-24T20:01:09.513Z,51.90
2018-07-24T20:03:38.395Z,52.10
2018-07-24T20:06:07.800Z,52.40
2018-07-24T20:08:37.002Z,51.70
2018-07-24T20:11:06.063Z,53.00
2018-07-24T20:13:35.706Z,52.90
2018-07-24T20:16:04.552Z,53.40
2018-07-24T20:18:33.264Z,53.30
2018-07-24T20:21:02.381Z,53.70
2018-07-24T20:23:31.092Z,53.90
2018-07-24T20:25:59.698Z,54.10
2018-07-24T20:28:28.946Z,54.10
2018-07-24T20:30:57.817Z,54.60
2018-07-24T20:33:26.454Z,54.60
2018-07-24T20:35:55.321Z,54.20
2018-07-24T20:38:24.755Z,54.10
2018-07-24T20:40:53.723Z,54.20
2018-07-24T20:43:22.618Z,54.60
2018-07-24T20:45:51.730Z,54.70
2018-07-24T20:48:20.395Z,54.80
2018-07-24T20:50:49.134Z,55.20
2018-07-24T20:53:18.313Z,54.70
2018-07-24T20:55:50.922Z,54.70
2018-07-24T20:58:20.004Z,54.90
2018-07-24T21:00:48.681Z,55.20
2018-07-24T21:03:17.353Z,54.80
2018-07-24T21:05:46.276Z,55.10
2018-07-24T21:08:14.909Z,55.20
2018-07-24T21:10:43.635Z,55.40
2018-07-24T21:13:12.646Z,56.10
2018-07-24T21:15:41.339Z,55.70
2018-07-24T21:18:10.288Z,56.00
2018-07-24T21:20:38.937Z,56.20
2018-07-24T21:23:07.914Z,56.40
2018-07-24T21:25:36.601Z,56.70
2018-07-24T21:28:05.528Z,56.60
2018-07-24T21:30:34.176Z,56.80
2018-07-24T21:33:03.193Z,57.60
2018-07-24T21:35:31.888Z,57.30
2018-07-24T21:38:00.573Z,57.50
2018-07-24T21:40:29.251Z,57.30
2018-07-24T21:42:57.895Z,57.40
2018-07-24T21:45:26.578Z,57.60
2018-07-24T21:47:55.161Z,57.60
2018-07-24T21:50:23.891Z,57.70
2018-07-24T21:52:53.078Z,57.70
2018-07-24T21:55:21.887Z,57.80
2018-07-24T21:57:50.748Z,57.50
2018-07-24T22:00:19.655Z,58.00
2018-07-24T22:02:48.326Z,58.20
2018-07-24T22:05:16.916Z,58.50
2018-07-24T22:07:45.707Z,58.40
2018-07-24T22:10:19.532Z,59.20
2018-07-24T22:15:24.261Z,58.50
2018-07-24T22:17:53.222Z,58.20
2018-07-24T22:20:22.262Z,58.30
2018-07-24T22:22:51.517Z,58.30
2018-07-24T22:25:20.310Z,58.50
2018-07-24T22:27:49.085Z,58.80
2018-07-24T22:30:17.700Z,58.60
2018-07-24T22:32:46.483Z,58.80
2018-07-24T22:35:15.144Z,58.70
2018-07-24T22:37:43.787Z,58.60
2018-07-24T22:40:12.828Z,58.70
2018-07-24T22:42:41.669Z,58.60
2018-07-24T22:45:10.248Z,58.70
2018-07-24T22:47:38.809Z,59.00
2018-07-24T22:50:07.550Z,58.80
2018-07-24T22:52:36.268Z,58.90
2018-07-24T22:55:04.931Z,58.70
2018-07-24T22:57:33.660Z,59.00
2018-07-24T23:00:02.327Z,59.00
2018-07-24T23:04:59.309Z,59.10
2018-07-24T23:07:27.988Z,59.30
2018-07-24T23:09:56.663Z,59.50
2018-07-24T23:12:25.349Z,59.20
2018-07-24T23:14:54.001Z,59.50
2018-07-24T23:17:22.851Z,59.70
2018-07-24T23:19:51.616Z,59.50
2018-07-24T23:22:20.175Z,60.00
2018-07-24T23:24:48.732Z,59.80
2018-07-24T23:27:17.371Z,59.90
2018-07-24T23:29:45.877Z,59.70
2018-07-24T23:32:14.444Z,60.50
2018-07-24T23:34:42.941Z,60.10
2018-07-24T23:37:11.578Z,60.30
2018-07-24T23:39:40.135Z,60.00
2018-07-24T23:42:09.010Z,60.60
2018-07-24T23:44:37.743Z,60.90
2018-07-24T23:47:06.241Z,60.90
2018-07-24T23:49:35.028Z,61.30
2018-07-24T23:52:03.602Z,61.50
2018-07-24T23:54:32.217Z,62.10
2018-07-24T23:57:00.923Z,62.10
2018-07-24T23:59:29.556Z,62.20
